Time;durP1;ratioP1;P1;durP2;ratioP2;P2;SDS_P1;SDS_P2;PMS_P1;PMS_P2;Temp;Humidity;BMP_temperature;BMP_pressure;BME280_temperature;BME280_humidity;BME280_pressure;Samples;Min_cycle;Max_cycle;Signal;HPM_P1;HPM_P2
2022/09/04 00:02:16;;;;;;;11.25;8.63;;;18.50;99.90;;;;;;5031344;28;20178;-50
2022/09/04 00:04:59;;;;;;;9.95;8.90;;;18.60;99.90;;;;;;5031932;28;20163;-49
2022/09/04 00:07:53;;;;;;;11.68;10.32;;;18.50;99.90;;;;;;5032568;28;20210;-49
2022/09/04 00:10:35;;;;;;;11.20;9.85;;;18.50;99.90;;;;;;5032720;28;20210;-50
2022/09/04 00:13:15;;;;;;;13.38;9.88;;;18.60;99.90;;;;;;5032260;28;20689;-50
2022/09/04 00:15:58;;;;;;;11.82;10.50;;;18.50;99.90;;;;;;5032386;28;20167;-51
2022/09/04 00:18:33;;;;;;;14.30;11.13;;;18.50;99.90;;;;;;5032635;28;20252;-50
2022/09/04 00:21:11;;;;;;;13.13;11.25;;;18.40;99.90;;;;;;5031876;28;20159;-51
2022/09/04 00:24:01;;;;;;;12.55;11.35;;;18.50;99.90;;;;;;5032306;28;20517;-51
2022/09/04 00:26:42;;;;;;;12.32;10.93;;;18.40;99.90;;;;;;5032454;28;20163;-50
2022/09/04 00:29:18;;;;;;;14.05;12.52;;;18.40;99.90;;;;;;5032176;28;20206;-51
2022/09/04 00:32:03;;;;;;;12.32;11.07;;;18.50;99.90;;;;;;5031189;28;20171;-51
2022/09/04 00:34:46;;;;;;;13.68;11.27;;;18.40;99.90;;;;;;5032197;28;20171;-50
2022/09/04 00:37:17;;;;;;;14.48;11.75;;;18.40;99.90;;;;;;5032077;28;20178;-51
2022/09/04 00:39:48;;;;;;;13.35;11.60;;;18.40;99.90;;;;;;5032238;28;20258;-51
2022/09/04 00:42:42;;;;;;;15.00;12.38;;;18.40;99.90;;;;;;5032137;28;20209;-51
2022/09/04 00:45:26;;;;;;;14.88;12.05;;;18.40;99.90;;;;;;5032028;28;20247;-51
2022/09/04 00:48:13;;;;;;;14.68;13.13;;;18.30;99.90;;;;;;5031846;28;20198;-51
2022/09/04 00:51:06;;;;;;;14.27;12.43;;;18.30;99.90;;;;;;5031856;28;20163;-51
2022/09/04 00:54:32;;;;;;;17.25;13.30;;;18.30;99.90;;;;;;5031820;28;20167;-51
2022/09/04 00:57:12;;;;;;;14.32;12.15;;;18.30;99.90;;;;;;5009014;28;20663;-51
2022/09/04 00:59:59;;;;;;;14.80;12.30;;;18.40;99.90;;;;;;5032100;28;20186;-51
2022/09/04 01:02:40;;;;;;;15.68;13.18;;;18.30;99.90;;;;;;5032129;28;20171;-51
2022/09/04 01:05:15;;;;;;;16.08;12.85;;;18.40;99.90;;;;;;5031688;28;20504;-50
2022/09/04 01:07:56;;;;;;;13.40;12.10;;;18.40;99.90;;;;;;5031893;28;20206;-51
2022/09/04 01:10:39;;;;;;;14.82;13.23;;;18.40;99.90;;;;;;5031752;28;20164;-51
2022/09/04 01:13:17;;;;;;;16.58;13.75;;;18.30;99.90;;;;;;5031526;28;20207;-50
2022/09/04 01:15:47;;;;;;;14.32;12.73;;;18.30;99.90;;;;;;5033562;28;20201;-50
2022/09/04 01:19:03;;;;;;;15.65;13.10;;;18.30;99.90;;;;;;5035674;28;20203;-51
2022/09/04 01:21:47;;;;;;;15.65;12.43;;;18.40;99.90;;;;;;5018014;28;20274;-51
2022/09/04 01:24:45;;;;;;;16.42;12.88;;;18.30;99.90;;;;;;5035535;28;20538;-49
2022/09/04 01:27:33;;;;;;;13.43;11.95;;;18.30;99.90;;;;;;5035264;28;20662;-50
2022/09/04 01:30:07;;;;;;;13.13;11.68;;;18.30;99.90;;;;;;5035435;28;20163;-51
2022/09/04 01:33:01;;;;;;;14.57;12.50;;;18.20;99.90;;;;;;5035485;28;20172;-50
2022/09/04 01:35:33;;;;;;;15.77;11.98;;;18.10;99.90;;;;;;5035431;28;20250;-50
2022/09/04 01:38:08;;;;;;;14.35;11.45;;;18.00;99.90;;;;;;5035314;28;20168;-51
2022/09/04 01:40:45;;;;;;;12.93;11.40;;;18.10;99.90;;;;;;5035320;28;20175;-51
2022/09/04 01:43:16;;;;;;;17.15;11.75;;;18.00;99.90;;;;;;5035318;28;20159;-52
2022/09/04 01:45:52;;;;;;;14.90;12.25;;;17.90;99.90;;;;;;5035492;28;20184;-51
2022/09/04 01:48:30;;;;;;;17.25;13.63;;;17.90;99.90;;;;;;5035192;28;20688;-50
2022/09/04 01:51:01;;;;;;;16.73;13.75;;;17.90;99.90;;;;;;5035577;28;20507;-49
2022/09/04 01:53:29;;;;;;;14.43;12.73;;;17.90;99.90;;;;;;5035099;28;20689;-49
2022/09/04 01:56:04;;;;;;;15.00;12.55;;;17.80;99.90;;;;;;5035299;28;20175;-49
2022/09/04 01:58:55;;;;;;;17.20;13.02;;;17.80;99.90;;;;;;5034945;28;20162;-49
2022/09/04 02:01:23;;;;;;;17.33;14.55;;;17.70;99.90;;;;;;5034641;28;20171;-49
2022/09/04 02:04:23;;;;;;;18.38;15.25;;;17.70;99.90;;;;;;5034853;28;20167;-49
2022/09/04 02:07:18;;;;;;;19.75;14.23;;;17.70;99.90;;;;;;5034702;28;20191;-50
2022/09/04 02:10:21;;;;;;;18.55;14.10;;;17.70;99.90;;;;;;5034743;28;20262;-51
2022/09/04 02:13:06;;;;;;;13.13;11.13;;;17.80;99.90;;;;;;5034356;28;20171;-51
2022/09/04 02:16:13;;;;;;;15.35;12.38;;;17.80;99.90;;;;;;5034565;28;20179;-51
2022/09/04 02:19:02;;;;;;;13.02;11.00;;;17.80;99.90;;;;;;5034659;28;20674;-51
2022/09/04 02:21:55;;;;;;;15.13;11.20;;;17.80;99.90;;;;;;5031770;28;20549;-50
2022/09/04 02:24:33;;;;;;;13.02;10.30;;;17.80;99.90;;;;;;5034178;28;20191;-51
2022/09/04 02:27:09;;;;;;;12.00;10.35;;;17.70;99.90;;;;;;5034160;28;20195;-51
2022/09/04 02:30:00;;;;;;;11.93;10.40;;;17.80;99.90;;;;;;5034363;28;20175;-50
2022/09/04 02:32:57;;;;;;;14.27;10.93;;;17.70;99.90;;;;;;5034665;28;20191;-51
2022/09/04 02:35:58;;;;;;;12.70;11.25;;;17.60;99.90;;;;;;5034633;28;20164;-51
2022/09/04 02:38:39;;;;;;;16.55;12.77;;;17.60;99.90;;;;;;5018285;28;20183;-51
2022/09/04 02:41:10;;;;;;;15.10;13.50;;;17.60;99.90;;;;;;5034219;28;20163;-51
2022/09/04 02:44:21;;;;;;;16.17;13.38;;;17.60;99.90;;;;;;5034400;28;20179;-51
2022/09/04 02:47:01;;;;;;;14.75;12.85;;;17.60;99.90;;;;;;5034108;28;20199;-51
2022/09/04 02:49:48;;;;;;;16.67;12.88;;;17.60;99.90;;;;;;5034199;28;20182;-50
2022/09/04 02:52:32;;;;;;;15.15;12.95;;;17.70;99.90;;;;;;5033792;28;20571;-51
2022/09/04 02:55:19;;;;;;;15.13;12.50;;;17.70;99.90;;;;;;5033183;28;20167;-51
2022/09/04 02:58:21;;;;;;;15.27;12.95;;;17.70;99.90;;;;;;5033833;28;20554;-51
2022/09/04 03:01:06;;;;;;;14.40;12.15;;;17.70;99.90;;;;;;5033821;28;20213;-51
2022/09/04 03:03:51;;;;;;;14.43;12.45;;;17.70;99.90;;;;;;5033704;28;20178;-51
2022/09/04 03:06:24;;;;;;;15.15;12.00;;;17.70;99.90;;;;;;5033788;28;20166;-51
2022/09/04 03:09:07;;;;;;;14.57;12.82;;;17.60;99.90;;;;;;5033585;28;20207;-51
2022/09/04 03:11:49;;;;;;;14.95;11.80;;;17.70;99.90;;;;;;5033608;28;20169;-51
2022/09/04 03:14:23;;;;;;;13.55;12.15;;;17.60;99.90;;;;;;5033352;28;20738;-51
2022/09/04 03:17:10;;;;;;;12.35;10.98;;;17.60;99.90;;;;;;5033714;28;20540;-51
2022/09/04 03:19:42;;;;;;;12.88;11.48;;;17.60;99.90;;;;;;5033432;28;20170;-51
2022/09/04 03:22:20;;;;;;;14.48;12.82;;;17.60;99.90;;;;;;5033054;28;20172;-51
2022/09/04 03:25:22;;;;;;;13.50;11.32;;;17.60;99.90;;;;;;5033323;28;20570;-50
2022/09/04 03:27:47;;;;;;;12.98;11.25;;;17.30;99.90;;;;;;5033264;28;20202;-50
2022/09/04 03:30:14;;;;;;;12.52;10.77;;;17.40;99.90;;;;;;5033189;28;20159;-50
2022/09/04 03:33:03;;;;;;;11.85;10.63;;;17.30;99.90;;;;;;5033294;28;20168;-51
2022/09/04 03:35:40;;;;;;;12.93;10.40;;;17.40;99.90;;;;;;5032968;28;20181;-50
2022/09/04 03:38:14;;;;;;;12.00;9.88;;;17.40;99.90;;;;;;5032558;28;20678;-48
2022/09/04 03:40:49;;;;;;;15.10;9.80;;;17.40;99.90;;;;;;5033138;28;20209;-50
2022/09/04 03:43:46;;;;;;;11.77;10.05;;;17.40;99.90;;;;;;5032945;28;20169;-49
2022/09/04 03:46:31;;;;;;;13.10;11.10;;;17.40;99.90;;;;;;5013674;28;20180;-49
2022/09/04 03:49:30;;;;;;;15.23;10.70;;;17.30;99.90;;;;;;5032664;28;20183;-50
2022/09/04 03:52:01;;;;;;;11.20;9.93;;;17.30;99.90;;;;;;5033160;28;20253;-48
2022/09/04 03:55:21;;;;;;;12.40;9.93;;;17.30;99.90;;;;;;5032732;28;20160;-50
2022/09/04 03:58:11;;;;;;;13.05;10.77;;;17.30;99.90;;;;;;5010830;28;20179;-49
2022/09/04 04:00:55;;;;;;;12.52;11.13;;;17.30;99.90;;;;;;5031404;28;20577;-50
2022/09/04 04:03:45;;;;;;;12.73;11.43;;;17.30;99.90;;;;;;5032800;28;20220;-50
2022/09/04 04:06:30;;;;;;;14.32;11.80;;;17.30;99.90;;;;;;5032375;28;20168;-49
2022/09/04 04:09:02;;;;;;;13.75;11.27;;;17.30;99.90;;;;;;5032427;28;20598;-49
2022/09/04 04:12:12;;;;;;;13.43;11.98;;;17.30;99.90;;;;;;5032491;28;20221;-50
2022/09/04 04:14:58;;;;;;;14.35;11.48;;;17.30;99.90;;;;;;5032236;28;20678;-50
2022/09/04 04:17:46;;;;;;;13.32;11.13;;;17.20;99.90;;;;;;5032964;28;20313;-49
2022/09/04 04:20:43;;;;;;;14.73;10.68;;;17.30;99.90;;;;;;5032257;28;20171;-50
2022/09/04 04:23:20;;;;;;;14.50;11.73;;;17.30;99.90;;;;;;5032251;28;20631;-50
2022/09/04 04:26:06;;;;;;;12.82;11.57;;;17.30;99.90;;;;;;5032313;28;20323;-50
2022/09/04 04:28:32;;;;;;;15.38;12.73;;;17.60;99.90;;;;;;5032192;28;20235;-50
2022/09/04 04:31:13;;;;;;;14.10;12.55;;;17.20;99.90;;;;;;5032154;28;20209;-50
2022/09/04 04:33:57;;;;;;;19.30;12.45;;;17.20;99.90;;;;;;5032121;28;20179;-50
2022/09/04 04:36:38;;;;;;;12.98;11.65;;;17.10;99.90;;;;;;5032450;28;20171;-50
2022/09/04 04:39:25;;;;;;;14.07;12.45;;;17.10;99.90;;;;;;5032333;28;20254;-49
2022/09/04 04:42:16;;;;;;;13.27;11.88;;;17.10;99.90;;;;;;5032287;28;20178;-50
2022/09/04 04:47:35;;;;;;;14.00;10.38;;;17.20;99.90;;;;;;5031866;28;20237;-49
2022/09/04 04:50:05;;;;;;;17.45;11.68;;;17.10;99.90;;;;;;5032143;28;20241;-49
2022/09/04 04:52:35;;;;;;;12.98;10.43;;;17.10;99.90;;;;;;5031938;28;20635;-49
2022/09/04 04:55:16;;;;;;;15.02;11.70;;;17.20;99.90;;;;;;5031893;28;20179;-49
2022/09/04 04:57:45;;;;;;;15.32;13.73;;;17.20;99.90;;;;;;5031747;28;20175;-49
2022/09/04 05:00:32;;;;;;;14.60;12.65;;;17.20;99.90;;;;;;5031668;28;20654;-49
2022/09/04 05:03:15;;;;;;;14.88;13.30;;;17.20;99.90;;;;;;5031687;28;20205;-49
2022/09/04 05:06:05;;;;;;;14.02;12.02;;;17.20;99.90;;;;;;5031761;28;20167;-49
2022/09/04 05:08:49;;;;;;;15.48;12.55;;;17.20;99.90;;;;;;5031948;28;20244;-49
2022/09/04 05:11:25;;;;;;;14.95;13.45;;;17.10;99.90;;;;;;5031894;28;21291;-49
2022/09/04 05:14:39;;;;;;;16.10;13.82;;;17.20;99.90;;;;;;5031943;28;20222;-49
2022/09/04 05:17:08;;;;;;;16.25;13.38;;;17.30;99.90;;;;;;5012022;28;20837;-48
2022/09/04 05:19:51;;;;;;;15.43;12.73;;;17.20;99.90;;;;;;5031606;28;20582;-49
2022/09/04 05:22:39;;;;;;;14.65;13.07;;;17.20;99.90;;;;;;5031757;28;20198;-49
2022/09/04 05:25:09;;;;;;;13.38;11.90;;;17.20;99.90;;;;;;5031558;28;20688;-50
2022/09/04 05:28:03;;;;;;;13.77;12.15;;;17.30;99.90;;;;;;5031323;28;20199;-50
2022/09/04 05:30:47;;;;;;;14.52;11.68;;;17.30;99.90;;;;;;5030188;28;20192;-50
2022/09/04 05:33:16;;;;;;;14.88;10.60;;;17.40;99.90;;;;;;5031404;28;20171;-50
2022/09/04 05:35:57;;;;;;;13.30;11.90;;;17.40;99.90;;;;;;5031422;28;20261;-50
2022/09/04 05:38:37;;;;;;;12.98;11.57;;;17.50;99.90;;;;;;5031712;28;20163;-50
2022/09/04 05:41:06;;;;;;;14.52;12.00;;;17.50;99.90;;;;;;5031592;28;20507;-50
2022/09/04 05:43:59;;;;;;;14.02;12.18;;;17.60;99.90;;;;;;5031318;28;20743;-50
2022/09/04 05:46:40;;;;;;;14.45;12.25;;;17.60;99.90;;;;;;5031720;28;20155;-50
2022/09/04 05:49:20;;;;;;;13.98;12.48;;;17.30;99.90;;;;;;5031558;28;20191;-50
2022/09/04 05:52:25;;;;;;;12.82;11.38;;;17.70;99.90;;;;;;5031477;28;20266;-50
2022/09/04 05:55:17;;;;;;;16.23;11.80;;;17.80;99.90;;;;;;5031584;28;20194;-49
2022/09/04 05:58:10;;;;;;;14.27;11.88;;;17.80;99.90;;;;;;5031239;28;20186;-49
2022/09/04 06:00:43;;;;;;;14.95;12.38;;;17.80;99.90;;;;;;5031424;28;20577;-49
2022/09/04 06:03:20;;;;;;;13.45;12.05;;;17.90;99.90;;;;;;5034602;28;20171;-48
2022/09/04 06:06:05;;;;;;;15.05;10.68;;;18.00;99.90;;;;;;5034750;28;20627;-48
2022/09/04 06:08:51;;;;;;;13.23;10.50;;;18.10;99.90;;;;;;5034975;28;20203;-48
2022/09/04 06:11:44;;;;;;;13.23;10.27;;;18.20;99.90;;;;;;5034638;28;20174;-49
2022/09/04 06:14:53;;;;;;;12.95;9.70;;;18.10;99.90;;;;;;5034527;28;20215;-48
2022/09/04 06:17:41;;;;;;;10.48;9.10;;;18.30;99.90;;;;;;5034933;28;20164;-48
2022/09/04 06:20:07;;;;;;;11.05;9.20;;;18.30;99.90;;;;;;5034491;28;20198;-48
2022/09/04 06:22:48;;;;;;;11.25;8.73;;;18.40;99.90;;;;;;5034700;28;20226;-49
2022/09/04 06:25:38;;;;;;;12.35;9.43;;;18.50;99.90;;;;;;5034670;28;20192;-48
2022/09/04 06:28:13;;;;;;;10.48;8.73;;;18.60;99.90;;;;;;5034381;28;20239;-49
2022/09/04 06:31:09;;;;;;;12.98;8.27;;;18.60;99.90;;;;;;5034327;28;20163;-48
2022/09/04 06:33:59;;;;;;;8.65;7.43;;;18.70;99.90;;;;;;5034135;28;20206;-50
2022/09/04 06:36:49;;;;;;;8.90;7.85;;;18.70;99.90;;;;;;5034197;28;20167;-48
2022/09/04 06:39:33;;;;;;;10.30;8.07;;;18.80;99.90;;;;;;5034145;28;20174;-49
2022/09/04 06:42:20;;;;;;;13.15;8.63;;;18.90;99.90;;;;;;5034048;28;20639;-47
2022/09/04 06:45:05;;;;;;;16.88;7.53;;;18.90;99.90;;;;;;5033921;28;20164;-47
2022/09/04 06:47:49;;;;;;;9.73;7.68;;;18.90;99.90;;;;;;5032914;28;20214;-48
2022/09/04 06:50:27;;;;;;;9.68;7.20;;;19.10;99.90;;;;;;5034041;28;20172;-48
2022/09/04 06:53:17;;;;;;;10.55;7.80;;;19.30;99.90;;;;;;5033892;28;20178;-49
2022/09/04 06:55:56;;;;;;;12.70;7.93;;;19.30;99.90;;;;;;5033762;28;20168;-48
2022/09/04 06:58:46;;;;;;;10.75;7.60;;;19.20;99.90;;;;;;5033729;28;20210;-47
2022/09/04 07:01:47;;;;;;;8.95;7.70;;;19.30;99.90;;;;;;5033753;28;20171;-48
2022/09/04 07:04:31;;;;;;;8.35;7.45;;;19.30;99.90;;;;;;5033843;28;20167;-49
2022/09/04 07:07:17;;;;;;;8.68;7.65;;;19.40;99.90;;;;;;5033527;28;20223;-47
2022/09/04 07:09:59;;;;;;;10.95;7.95;;;19.70;99.90;;;;;;5032453;28;20181;-48
2022/09/04 07:12:49;;;;;;;8.18;6.93;;;19.80;99.90;;;;;;5032891;28;20204;-49
2022/09/04 07:15:43;;;;;;;8.38;7.47;;;20.00;99.90;;;;;;5033531;28;20187;-47
2022/09/04 07:18:42;;;;;;;8.07;7.30;;;20.10;99.90;;;;;;5024045;28;20631;-49
2022/09/04 07:21:21;;;;;;;10.80;7.32;;;20.20;99.90;;;;;;5033477;28;20180;-49
2022/09/04 07:24:01;;;;;;;7.07;6.38;;;20.50;99.90;;;;;;5033360;28;20573;-47
2022/09/04 07:26:55;;;;;;;10.57;7.63;;;20.30;99.90;;;;;;5033367;28;20639;-47
2022/09/04 07:29:55;;;;;;;8.02;6.47;;;20.50;99.90;;;;;;5033719;28;20674;-47
2022/09/04 07:32:29;;;;;;;10.20;6.50;;;20.60;99.90;;;;;;5028696;28;20647;-48
2022/09/04 07:35:10;;;;;;;6.10;5.40;;;21.00;99.90;;;;;;5033243;28;20615;-47
2022/09/04 07:37:55;;;;;;;5.72;5.22;;;21.00;99.90;;;;;;5033159;28;20209;-49
2022/09/04 07:40:29;;;;;;;8.05;5.38;;;21.20;99.90;;;;;;5033619;28;20194;-48
2022/09/04 07:43:08;;;;;;;5.75;5.15;;;21.20;99.90;;;;;;5033027;28;20619;-48
2022/09/04 07:45:37;;;;;;;5.63;5.05;;;21.30;99.90;;;;;;5032902;28;20182;-50
2022/09/04 07:48:09;;;;;;;5.30;4.63;;;21.50;99.90;;;;;;5032930;28;20225;-48
2022/09/04 07:50:44;;;;;;;7.20;4.25;;;21.60;99.90;;;;;;5032783;28;20166;-49
2022/09/04 07:53:35;;;;;;;7.28;4.95;;;21.60;99.90;;;;;;5032931;28;20708;-51
2022/09/04 07:56:20;;;;;;;5.82;5.07;;;21.80;99.90;;;;;;5032812;28;20172;-51
2022/09/04 07:59:08;;;;;;;6.53;4.68;;;22.00;99.90;;;;;;5032916;28;20179;-51
2022/09/04 08:01:57;;;;;;;7.32;4.70;;;21.90;99.90;;;;;;5032352;28;20266;-50
2022/09/04 08:04:39;;;;;;;7.35;4.28;;;22.00;99.90;;;;;;5032835;28;20246;-49
2022/09/04 08:07:11;;;;;;;4.43;4.03;;;22.10;99.90;;;;;;5032363;28;20202;-49
2022/09/04 08:09:39;;;;;;;4.57;3.53;;;22.20;99.90;;;;;;5032470;28;20175;-48
2022/09/04 08:12:20;;;;;;;4.57;3.58;;;22.40;99.90;;;;;;5031690;28;20159;-48
2022/09/04 08:15:15;;;;;;;16.05;4.10;;;22.40;99.90;;;;;;5031814;28;20737;-49
2022/09/04 08:18:08;;;;;;;5.50;3.33;;;22.40;99.90;;;;;;5021888;28;20628;-49
2022/09/04 08:20:39;;;;;;;4.90;3.72;;;22.60;99.90;;;;;;5031995;28;20229;-48
2022/09/04 08:23:23;;;;;;;4.28;3.25;;;22.50;99.90;;;;;;5032219;28;20163;-50
2022/09/04 08:26:06;;;;;;;7.30;3.45;;;22.40;99.90;;;;;;5031914;28;20174;-50
2022/09/04 08:28:59;;;;;;;7.65;2.55;;;22.70;99.90;;;;;;5031984;28;20298;-51
2022/09/04 08:31:49;;;;;;;2.42;2.22;;;22.70;99.90;;;;;;5032138;28;20174;-48
2022/09/04 08:34:39;;;;;;;3.05;2.50;;;22.40;99.90;;;;;;5032270;28;20187;-50
2022/09/04 08:37:10;;;;;;;8.38;2.85;;;22.60;99.90;;;;;;5032102;28;20163;-50
2022/09/04 08:39:46;;;;;;;7.20;2.50;;;22.50;99.90;;;;;;5032046;28;20697;-50
2022/09/04 08:42:33;;;;;;;4.47;2.38;;;22.40;99.90;;;;;;5031837;28;20529;-50
2022/09/04 08:45:05;;;;;;;5.35;2.60;;;22.40;99.90;;;;;;5032204;28;20177;-50
2022/09/04 08:47:34;;;;;;;2.38;2.10;;;22.70;99.90;;;;;;5031781;28;20202;-50
2022/09/04 08:50:33;;;;;;;3.60;1.90;;;22.80;99.90;;;;;;5031967;28;20167;-50
2022/09/04 08:53:04;;;;;;;9.23;2.20;;;22.60;99.90;;;;;;5027350;28;20179;-49
2022/09/04 08:55:46;;;;;;;6.07;2.15;;;22.40;99.90;;;;;;5031752;28;20699;-49
2022/09/04 08:58:48;;;;;;;4.93;2.13;;;22.40;99.90;;;;;;5032111;28;20167;-50
2022/09/04 09:01:37;;;;;;;3.13;1.92;;;22.50;99.90;;;;;;5031816;28;20167;-50
2022/09/04 09:04:27;;;;;;;5.25;3.72;;;22.40;99.90;;;;;;5031394;28;20174;-50
2022/09/04 09:06:53;;;;;;;4.57;2.50;;;22.30;99.90;;;;;;5032035;28;20171;-50
2022/09/04 09:10:10;;;;;;;4.53;2.33;;;22.40;99.90;;;;;;5031798;28;20163;-50
2022/09/04 09:13:16;;;;;;;3.40;2.40;;;22.40;99.90;;;;;;5019648;28;20191;-47
2022/09/04 09:15:51;;;;;;;2.85;2.22;;;22.50;99.90;;;;;;5031739;28;20623;-48
2022/09/04 09:18:36;;;;;;;3.67;2.42;;;22.90;99.90;;;;;;5031652;28;20178;-50
2022/09/04 09:21:09;;;;;;;2.33;2.13;;;22.80;99.90;;;;;;5031884;28;20199;-51
2022/09/04 09:23:58;;;;;;;2.38;2.05;;;22.70;99.90;;;;;;5031796;28;20171;-51
2022/09/04 09:26:29;;;;;;;2.30;1.75;;;22.70;99.90;;;;;;5031838;28;20713;-47
2022/09/04 09:29:29;;;;;;;3.60;1.63;;;23.10;99.90;;;;;;5031599;28;20349;-48
2022/09/04 09:32:33;;;;;;;2.80;2.05;;;23.30;99.90;;;;;;5036278;28;20631;-47
2022/09/04 09:35:07;;;;;;;5.15;2.00;;;23.10;99.90;;;;;;5041828;28;20167;-48
2022/09/04 09:37:33;;;;;;;2.63;2.15;;;23.00;99.90;;;;;;5033583;28;20193;-50
2022/09/04 09:40:07;;;;;;;2.67;2.00;;;23.00;99.90;;;;;;5035059;28;20186;-50
2022/09/04 09:43:08;;;;;;;2.38;1.90;;;23.20;99.90;;;;;;5035255;28;20179;-50
2022/09/04 09:45:58;;;;;;;2.60;1.83;;;23.40;99.90;;;;;;5035377;28;20179;-50
2022/09/04 09:49:12;;;;;;;2.55;1.90;;;23.30;99.90;;;;;;5035320;28;20214;-50
2022/09/04 09:51:57;;;;;;;1.90;1.77;;;23.20;99.90;;;;;;5035011;28;20167;-49
2022/09/04 09:54:48;;;;;;;2.85;1.88;;;23.10;99.90;;;;;;5035554;28;20170;-50
2022/09/04 09:57:28;;;;;;;3.05;1.90;;;23.10;99.90;;;;;;5034982;28;20167;-50
2022/09/04 10:00:11;;;;;;;2.83;2.30;;;23.30;99.90;;;;;;5045510;28;20205;-48
2022/09/04 10:03:01;;;;;;;3.25;1.90;;;23.30;99.90;;;;;;5054785;28;20171;-49
2022/09/04 10:06:12;;;;;;;2.38;2.17;;;23.70;99.90;;;;;;5054986;28;20209;-50
2022/09/04 10:09:08;;;;;;;1.90;1.80;;;23.70;99.90;;;;;;5046194;28;20221;-49
2022/09/04 10:12:06;;;;;;;2.40;2.15;;;23.50;99.90;;;;;;5053504;28;20258;-50
2022/09/04 10:14:52;;;;;;;3.65;1.80;;;23.60;99.90;;;;;;5054427;28;20230;-50
2022/09/04 10:17:29;;;;;;;2.03;1.80;;;23.50;99.90;;;;;;5054731;28;20483;-50
2022/09/04 10:20:21;;;;;;;2.60;1.88;;;23.50;99.90;;;;;;5054504;28;20224;-50
2022/09/04 10:23:08;;;;;;;2.05;1.77;;;23.40;99.90;;;;;;5054410;28;20167;-50
2022/09/04 10:26:12;;;;;;;1.73;1.63;;;23.50;99.90;;;;;;5054375;28;20177;-50
2022/09/04 10:29:27;;;;;;;2.08;1.70;;;23.50;99.90;;;;;;5043406;28;20206;-47
2022/09/04 10:31:58;;;;;;;4.15;2.20;;;23.60;99.90;;;;;;5032276;28;20180;-51
2022/09/04 10:34:53;;;;;;;2.65;1.60;;;24.10;99.90;;;;;;5050343;28;20218;-50
2022/09/04 10:37:27;;;;;;;4.85;3.20;;;24.10;99.90;;;;;;5054471;28;20224;-50
2022/09/04 10:43:17;;;;;;;6.13;1.95;;;24.70;99.90;;;;;;5054070;28;20601;-50
2022/09/04 10:45:59;;;;;;;4.38;2.20;;;24.50;99.90;;;;;;5053701;28;20167;-50
2022/09/04 10:48:44;;;;;;;2.22;1.98;;;24.60;99.90;;;;;;5053794;28;20210;-51
2022/09/04 10:51:24;;;;;;;3.08;2.08;;;24.50;99.90;;;;;;5053413;28;20163;-48
2022/09/04 10:54:28;;;;;;;2.95;2.00;;;24.90;99.90;;;;;;5054398;28;20208;-50
2022/09/04 10:57:09;;;;;;;4.28;2.17;;;25.40;99.90;;;;;;5053573;28;20178;-46
2022/09/04 10:59:49;;;;;;;2.20;1.98;;;25.80;99.90;;;;;;5053792;28;20178;-50
2022/09/04 11:02:31;;;;;;;3.70;1.73;;;25.80;99.90;;;;;;5053573;28;20513;-49
2022/09/04 11:05:17;;;;;;;3.88;2.03;;;25.90;99.90;;;;;;5053574;28;20629;-49
2022/09/04 11:08:21;;;;;;;2.55;1.80;;;25.10;99.90;;;;;;5053125;28;20741;-49
2022/09/04 11:11:08;;;;;;;2.15;1.77;;;25.00;99.90;;;;;;5053702;28;20184;-49
2022/09/04 11:14:15;;;;;;;2.03;1.80;;;25.00;99.90;;;;;;5052922;28;20210;-48
2022/09/04 11:17:19;;;;;;;2.65;1.98;;;25.20;99.90;;;;;;5040744;28;20186;-46
2022/09/04 11:20:05;;;;;;;2.65;1.90;;;25.20;99.90;;;;;;5053261;28;20174;-49
2022/09/04 11:23:04;;;;;;;2.28;1.92;;;25.20;99.90;;;;;;5053511;28;20276;-49
2022/09/04 11:25:50;;;;;;;8.70;1.90;;;25.20;99.90;;;;;;5041314;28;20178;-48
2022/09/04 11:28:35;;;;;;;2.67;1.77;;;25.20;99.90;;;;;;5052975;28;20293;-48
2022/09/04 11:31:22;;;;;;;2.15;1.95;;;25.20;99.90;;;;;;5051836;28;20166;-47
2022/09/04 11:34:22;;;;;;;3.20;2.00;;;25.20;99.90;;;;;;5053044;28;20170;-47
2022/09/04 11:37:15;;;;;;;2.90;1.90;;;25.20;99.90;;;;;;5041814;28;20182;-47
2022/09/04 11:40:02;;;;;;;2.45;1.67;;;25.20;99.90;;;;;;5052883;28;20212;-46
2022/09/04 11:42:40;;;;;;;2.90;1.63;;;25.30;99.90;;;;;;5047555;28;20174;-46
2022/09/04 11:45:20;;;;;;;2.05;1.77;;;25.60;99.90;;;;;;5037765;28;20537;-48
2022/09/04 11:48:07;;;;;;;2.63;1.90;;;26.00;99.90;;;;;;5032755;28;20202;-48
2022/09/04 11:51:15;;;;;;;1.80;1.70;;;26.40;99.90;;;;;;5032874;28;20177;-49
2022/09/04 11:53:51;;;;;;;2.42;1.77;;;26.10;99.90;;;;;;5032778;28;20630;-47
2022/09/04 11:56:54;;;;;;;2.17;1.83;;;25.80;99.90;;;;;;5032659;28;20205;-48
2022/09/04 11:59:42;;;;;;;4.43;1.95;;;25.70;99.90;;;;;;5047071;28;20256;-47
2022/09/04 12:02:32;;;;;;;4.00;1.60;;;25.90;99.90;;;;;;5051446;28;20185;-48
2022/09/04 12:05:19;;;;;;;3.55;1.77;;;25.90;99.90;;;;;;5051217;28;20171;-46
2022/09/04 12:08:10;;;;;;;7.10;2.17;;;25.80;99.90;;;;;;5051234;28;20233;-46
2022/09/04 12:10:54;;;;;;;2.88;2.10;;;25.80;99.90;;;;;;5049705;28;20169;-47
2022/09/04 12:13:36;;;;;;;3.85;2.20;;;25.90;99.90;;;;;;5051487;28;20252;-47
2022/09/04 12:16:33;;;;;;;2.00;1.80;;;26.00;99.90;;;;;;5051337;28;20175;-47
2022/09/04 12:19:28;;;;;;;2.35;1.75;;;26.00;99.90;;;;;;5049728;28;20173;-47
2022/09/04 12:22:02;;;;;;;3.97;1.90;;;26.30;99.90;;;;;;5041873;28;20276;-47
2022/09/04 12:24:58;;;;;;;3.45;2.40;;;26.30;99.90;;;;;;5050833;28;20166;-47
2022/09/04 12:27:30;;;;;;;2.70;2.05;;;26.90;99.90;;;;;;5050625;28;20753;-47
2022/09/04 12:30:14;;;;;;;2.22;1.90;;;27.00;99.90;;;;;;5050858;28;20549;-47
2022/09/04 12:32:52;;;;;;;4.75;1.90;;;27.00;99.90;;;;;;5050604;28;20168;-47
2022/09/04 12:35:35;;;;;;;2.78;1.88;;;26.90;99.90;;;;;;5048909;28;20252;-48
2022/09/04 12:38:18;;;;;;;5.53;2.00;;;27.10;99.90;;;;;;5050509;28;20276;-48
2022/09/04 12:40:47;;;;;;;2.70;1.80;;;27.40;99.90;;;;;;5049630;28;20205;-48
2022/09/04 12:43:23;;;;;;;2.95;1.80;;;27.90;99.90;;;;;;5050838;28;20174;-47
2022/09/04 12:46:13;;;;;;;3.28;1.75;;;28.00;99.90;;;;;;5050996;28;20204;-49
2022/09/04 12:48:56;;;;;;;2.35;1.75;;;28.10;99.90;;;;;;5050704;28;20210;-49
2022/09/04 12:51:24;;;;;;;2.40;1.70;;;27.90;99.90;;;;;;5050868;28;20177;-47
2022/09/04 12:54:01;;;;;;;5.47;2.05;;;27.50;99.90;;;;;;5051219;28;20189;-48
2022/09/04 12:57:07;;;;;;;1.70;1.60;;;27.50;99.90;;;;;;5050151;28;20344;-48
2022/09/04 12:59:45;;;;;;;2.25;1.90;;;27.90;99.90;;;;;;5049346;28;20177;-48
2022/09/04 13:02:26;;;;;;;1.95;1.75;;;28.40;99.90;;;;;;5050303;28;20162;-48
2022/09/04 13:05:05;;;;;;;4.18;1.85;;;28.50;99.90;;;;;;5051038;28;20213;-48
2022/09/04 13:07:51;;;;;;;2.42;1.90;;;28.80;99.90;;;;;;5050262;28;20221;-48
2022/09/04 13:10:20;;;;;;;3.10;1.88;;;28.90;99.90;;;;;;5050443;28;20205;-48
2022/09/04 13:12:48;;;;;;;2.45;1.80;;;28.90;99.90;;;;;;5053697;28;20166;-48
2022/09/04 13:15:31;;;;;;;2.33;2.13;;;29.00;99.90;;;;;;5054616;28;20223;-48
2022/09/04 13:18:13;;;;;;;2.17;2.00;;;28.60;99.90;;;;;;5054343;28;20173;-47
2022/09/04 13:20:45;;;;;;;1.70;1.60;;;28.40;99.90;;;;;;5054519;28;20162;-47
2022/09/04 13:23:25;;;;;;;3.40;1.77;;;28.10;99.90;;;;;;5054733;28;20221;-47
2022/09/04 13:26:05;;;;;;;2.15;1.95;;;27.80;99.90;;;;;;5054553;28;20162;-48
2022/09/04 13:28:45;;;;;;;2.25;1.90;;;27.60;99.90;;;;;;5054338;28;20296;-49
2022/09/04 13:31:22;;;;;;;1.92;1.83;;;27.70;99.90;;;;;;5054258;28;20241;-48
2022/09/04 13:34:24;;;;;;;2.58;2.10;;;28.30;99.90;;;;;;5052980;28;20184;-48
2022/09/04 13:37:04;;;;;;;2.35;2.13;;;28.50;99.90;;;;;;5054521;28;20165;-48
2022/09/04 13:39:44;;;;;;;3.17;1.98;;;28.40;99.90;;;;;;5052944;28;20205;-47
2022/09/04 13:42:28;;;;;;;2.05;1.90;;;28.70;99.90;;;;;;5054141;28;20170;-48
2022/09/04 13:45:02;;;;;;;3.38;2.10;;;28.70;99.90;;;;;;5054244;28;20178;-48
2022/09/04 13:47:43;;;;;;;2.72;2.10;;;28.80;99.90;;;;;;5053442;28;20598;-48
2022/09/04 13:50:16;;;;;;;2.50;2.08;;;29.00;99.90;;;;;;5053901;28;20584;-48
2022/09/04 13:52:54;;;;;;;3.15;2.10;;;29.00;99.80;;;;;;5053523;28;20653;-49
2022/09/04 13:55:25;;;;;;;2.78;2.05;;;29.10;98.20;;;;;;5054538;28;20208;-48
2022/09/04 13:58:00;;;;;;;2.88;2.30;;;29.20;98.10;;;;;;5054262;28;20182;-48
2022/09/04 14:00:29;;;;;;;3.35;2.20;;;29.30;99.00;;;;;;5053247;28;20165;-49
2022/09/04 14:03:01;;;;;;;3.53;1.98;;;29.30;99.10;;;;;;5053676;28;20166;-47
2022/09/04 14:05:30;;;;;;;3.78;2.17;;;29.00;96.60;;;;;;5053479;28;20192;-47
2022/09/04 14:08:12;;;;;;;3.80;2.25;;;28.80;98.20;;;;;;5046446;28;20741;-46
2022/09/04 14:11:03;;;;;;;3.03;2.05;;;29.10;96.70;;;;;;5033371;28;20186;-46
2022/09/04 14:13:40;;;;;;;2.72;2.00;;;29.10;96.20;;;;;;5031731;28;20218;-47